createdAt,value
2018-11-04T00:00:49.671Z,0.00
2018-11-04T00:01:49.872Z,0.00
2018-11-04T00:02:49.898Z,0.00
2018-11-04T00:03:49.895Z,0.00
2018-11-04T00:04:50.219Z,0.00
2018-11-04T00:05:50.012Z,0.00
2018-11-04T00:06:50.532Z,0.00
2018-11-04T00:07:50.906Z,0.00
2018-11-04T00:08:51.063Z,0.00
2018-11-04T00:09:51.580Z,0.00
2018-11-04T00:10:51.591Z,0.00
2018-11-04T00:11:51.990Z,0.00
2018-11-04T00:12:51.997Z,0.00
2018-11-04T00:13:52.093Z,0.00
2018-11-04T00:14:52.020Z,0.00
2018-11-04T00:15:52.293Z,0.00
2018-11-04T00:16:52.605Z,0.00
2018-11-04T00:17:52.807Z,0.00
2018-11-04T00:18:53.132Z,0.00
2018-11-04T00:19:53.553Z,0.00
2018-11-04T00:20:53.912Z,0.00
2018-11-04T00:21:53.853Z,0.00
2018-11-04T00:22:54.525Z,0.00
2018-11-04T00:23:54.368Z,0.00
2018-11-04T00:24:54.692Z,0.00
2018-11-04T00:25:55.109Z,0.00
2018-11-04T00:26:55.591Z,0.00
2018-11-04T00:27:55.943Z,0.00
2018-11-04T00:28:56.566Z,0.00
2018-11-04T00:29:56.511Z,0.00
2018-11-04T00:30:56.798Z,0.00
2018-11-04T00:31:57.109Z,0.00
2018-11-04T00:32:57.499Z,0.00
2018-11-04T00:33:57.855Z,0.00
2018-11-04T00:34:58.356Z,0.00
2018-11-04T00:35:58.774Z,0.00
2018-11-04T00:36:59.483Z,0.00
2018-11-04T00:37:59.341Z,0.00
2018-11-04T00:38:59.736Z,0.00
2018-11-04T00:39:59.785Z,0.00
2018-11-04T00:41:00.170Z,0.00
2018-11-04T00:42:00.508Z,0.00
2018-11-04T00:43:00.938Z,0.00
2018-11-04T00:44:01.265Z,0.00
2018-11-04T00:45:02.247Z,0.00
2018-11-04T00:46:01.666Z,0.00
2018-11-04T00:47:02.192Z,0.00
2018-11-04T00:48:02.603Z,0.00
2018-11-04T00:49:02.945Z,0.00
2018-11-04T00:50:03.358Z,0.00
2018-11-04T00:51:03.993Z,0.00
2018-11-04T00:52:04.397Z,0.00
2018-11-04T00:53:04.609Z,0.00
2018-11-04T00:54:04.923Z,0.00
2018-11-04T00:55:05.441Z,0.00
2018-11-04T00:56:05.361Z,0.00
2018-11-04T00:57:05.841Z,0.00
2018-11-04T00:58:05.875Z,0.00
2018-11-04T00:59:06.085Z,0.00
2018-11-04T01:00:06.084Z,0.00
2018-11-04T01:01:06.302Z,0.00
2018-11-04T01:02:06.431Z,0.00
2018-11-04T01:03:06.559Z,0.00
2018-11-04T01:04:06.720Z,0.00
2018-11-04T01:05:06.836Z,0.00
2018-11-04T01:06:06.950Z,0.00
2018-11-04T01:07:07.140Z,0.00
2018-11-04T01:08:07.249Z,0.00
2018-11-04T01:09:07.179Z,0.00
2018-11-04T01:10:07.054Z,0.00
2018-11-04T01:11:07.697Z,0.00
2018-11-04T01:12:07.802Z,0.00
2018-11-04T01:13:08.002Z,0.00
2018-11-04T01:14:08.226Z,0.00
2018-11-04T01:15:08.443Z,0.00
2018-11-04T01:16:08.192Z,0.00
2018-11-04T01:17:09.134Z,0.00
2018-11-04T01:18:09.027Z,0.00
2018-11-04T01:20:09.380Z,0.00
2018-11-04T01:21:09.867Z,0.00
2018-11-04T01:22:10.185Z,0.00
2018-11-04T01:23:10.570Z,0.00
2018-11-04T01:24:10.943Z,0.00
2018-11-04T01:25:11.104Z,0.00
2018-11-04T01:26:11.584Z,0.00
2018-11-04T01:27:11.875Z,0.00
2018-11-04T01:28:12.245Z,0.00
2018-11-04T01:29:12.724Z,0.00
2018-11-04T01:30:13.148Z,0.00
2018-11-04T01:31:13.482Z,0.00
2018-11-04T01:32:13.806Z,0.00
2018-11-04T01:33:14.122Z,0.00
2018-11-04T01:34:14.398Z,0.00
2018-11-04T01:35:15.650Z,0.00
2018-11-04T01:36:14.971Z,0.00
2018-11-04T01:37:15.420Z,0.00
2018-11-04T01:38:15.803Z,0.00
2018-11-04T01:39:16.255Z,0.00
2018-11-04T01:40:17.228Z,0.00
2018-11-04T01:41:17.109Z,0.00
2018-11-04T01:42:17.427Z,0.00
2018-11-04T01:43:17.771Z,0.00
2018-11-04T01:44:18.288Z,0.00
2018-11-04T01:45:18.371Z,0.00
2018-11-04T01:46:18.785Z,0.00
2018-11-04T01:47:19.402Z,0.00
2018-11-04T01:48:19.922Z,0.00
2018-11-04T01:49:20.333Z,0.00
2018-11-04T01:50:20.354Z,0.00
2018-11-04T01:51:20.862Z,0.00
2018-11-04T01:52:20.972Z,0.00
2018-11-04T01:53:21.286Z,0.00
2018-11-04T01:54:21.601Z,0.00
2018-11-04T01:55:21.867Z,0.00
2018-11-04T01:56:21.922Z,0.00
2018-11-04T01:57:21.818Z,0.00
2018-11-04T01:58:22.326Z,0.00
2018-11-04T01:59:22.206Z,0.00
2018-11-04T02:00:22.670Z,0.00
2018-11-04T02:01:22.516Z,0.00
2018-11-04T02:02:22.778Z,0.00
2018-11-04T02:03:22.984Z,0.00
2018-11-04T02:04:23.302Z,0.00
2018-11-04T02:05:23.464Z,0.00
2018-11-04T02:06:23.772Z,0.00
2018-11-04T02:07:24.039Z,0.00
2018-11-04T02:08:24.279Z,0.00
2018-11-04T02:09:24.233Z,0.00
2018-11-04T02:10:24.787Z,0.00
2018-11-04T02:11:24.714Z,0.00
2018-11-04T02:12:25.029Z,0.00
2018-11-04T02:13:25.387Z,0.00
2018-11-04T02:14:25.750Z,0.00
2018-11-04T02:15:26.091Z,0.00
2018-11-04T02:16:26.379Z,0.00
2018-11-04T02:17:26.792Z,0.00
2018-11-04T02:18:27.289Z,0.00
2018-11-04T02:20:27.638Z,0.00
2018-11-04T02:21:28.261Z,0.00
2018-11-04T02:22:28.158Z,0.00
2018-11-04T02:23:28.574Z,0.00
2018-11-04T02:24:28.879Z,0.00
2018-11-04T02:25:29.244Z,0.00
2018-11-04T02:26:29.517Z,0.00
2018-11-04T02:27:29.791Z,0.00
2018-11-04T02:28:30.093Z,0.00
2018-11-04T02:29:30.461Z,0.00
2018-11-04T02:30:30.878Z,0.00
2018-11-04T02:31:31.187Z,0.00
2018-11-04T02:32:31.832Z,0.00
2018-11-04T02:33:31.814Z,0.00
2018-11-04T02:34:36.673Z,0.00
2018-11-04T02:35:32.550Z,0.00
2018-11-04T02:36:32.890Z,0.00
2018-11-04T02:37:33.968Z,0.00
2018-11-04T02:38:33.964Z,0.00
2018-11-04T02:39:34.895Z,0.00
2018-11-04T02:40:35.226Z,0.00
2018-11-04T02:41:35.728Z,0.00
2018-11-04T02:42:35.733Z,0.00
2018-11-04T02:43:36.247Z,0.00
2018-11-04T02:44:36.102Z,0.00
2018-11-04T02:45:36.678Z,0.00
2018-11-04T02:46:36.578Z,0.00
2018-11-04T02:47:37.190Z,0.00
2018-11-04T02:48:37.246Z,0.00
2018-11-04T02:49:37.447Z,0.00
2018-11-04T02:50:37.642Z,0.00
2018-11-04T02:51:37.718Z,0.00
2018-11-04T02:52:37.782Z,0.00
2018-11-04T02:53:37.950Z,0.00
2018-11-04T02:54:38.021Z,0.00
2018-11-04T02:55:38.133Z,0.00
2018-11-04T02:56:38.281Z,0.00
2018-11-04T02:57:38.582Z,0.00
2018-11-04T02:58:38.760Z,0.00
2018-11-04T02:59:38.868Z,0.00
2018-11-04T03:00:39.024Z,0.00
2018-11-04T03:01:39.253Z,0.00
2018-11-04T03:02:39.468Z,0.00
2018-11-04T03:03:39.768Z,0.00
2018-11-04T03:04:39.554Z,0.00
2018-11-04T03:05:39.862Z,0.00
2018-11-04T03:06:40.152Z,0.00
2018-11-04T03:07:40.606Z,0.00
2018-11-04T03:08:40.953Z,0.00
2018-11-04T03:09:42.261Z,0.00
2018-11-04T03:10:41.613Z,0.00
2018-11-04T03:11:42.009Z,0.00
2018-11-04T03:12:42.522Z,0.00
2018-11-04T03:13:42.428Z,0.00
2018-11-04T03:14:42.620Z,0.00
2018-11-04T03:15:42.773Z,0.00
2018-11-04T03:16:42.683Z,0.00
2018-11-04T03:17:43.060Z,0.00
2018-11-04T03:18:43.420Z,0.00
2018-11-04T03:19:43.927Z,0.00
2018-11-04T03:20:43.840Z,0.00
2018-11-04T03:21:44.217Z,0.00
2018-11-04T03:22:44.529Z,0.00
2018-11-04T03:23:44.797Z,0.00
2018-11-04T03:24:45.609Z,0.00
2018-11-04T03:25:45.322Z,0.00
2018-11-04T03:26:45.700Z,0.00
2018-11-04T03:27:46.321Z,0.00
2018-11-04T03:28:46.237Z,0.00
2018-11-04T03:29:46.518Z,0.00
2018-11-04T03:30:46.892Z,0.00
2018-11-04T03:31:47.189Z,0.00
2018-11-04T03:32:47.828Z,0.00
2018-11-04T03:33:47.670Z,0.00
2018-11-04T03:34:48.170Z,0.00
2018-11-04T03:35:49.072Z,0.00
2018-11-04T03:36:49.833Z,0.00
2018-11-04T03:37:50.028Z,0.00
2018-11-04T03:38:49.930Z,0.00
2018-11-04T03:39:51.676Z,0.00
2018-11-04T03:40:51.087Z,0.00
2018-11-04T03:41:51.376Z,0.00
2018-11-04T03:42:51.591Z,0.00
2018-11-04T03:43:51.251Z,0.00
2018-11-04T03:44:51.815Z,0.00
2018-11-04T03:45:51.918Z,0.00
2018-11-04T03:46:51.930Z,0.00
2018-11-04T03:47:52.307Z,0.00
2018-11-04T03:48:52.548Z,0.00
2018-11-04T03:49:52.724Z,0.00
2018-11-04T03:50:52.933Z,0.00
2018-11-04T03:51:53.295Z,0.00
2018-11-04T03:53:53.582Z,0.00
2018-11-04T03:54:53.806Z,0.00
2018-11-04T03:55:53.919Z,0.00
2018-11-04T03:56:54.013Z,0.00
2018-11-04T03:57:53.911Z,0.00
2018-11-04T03:58:54.331Z,0.00
2018-11-04T03:59:54.703Z,0.00
2018-11-04T04:00:55.037Z,0.00
2018-11-04T04:01:55.510Z,0.00
2018-11-04T04:02:55.799Z,0.00
2018-11-04T04:03:56.157Z,0.00
2018-11-04T04:04:56.445Z,0.00
2018-11-04T04:05:56.933Z,0.00
2018-11-04T04:06:57.364Z,0.00
2018-11-04T04:07:57.727Z,0.00
2018-11-04T04:08:58.032Z,0.00
2018-11-04T04:09:58.345Z,0.00
2018-11-04T04:10:58.643Z,0.00
2018-11-04T04:11:59.015Z,0.00
2018-11-04T04:12:59.400Z,0.00
2018-11-04T04:13:59.898Z,0.00
2018-11-04T04:15:00.279Z,0.00
2018-11-04T04:16:00.682Z,0.00
2018-11-04T04:17:01.113Z,0.00
2018-11-04T04:18:01.406Z,0.00
2018-11-04T04:19:01.686Z,0.00
2018-11-04T04:20:02.342Z,0.00
2018-11-04T04:21:02.509Z,0.00
2018-11-04T04:22:02.909Z,0.00
2018-11-04T04:23:03.319Z,0.00
2018-11-04T04:24:03.736Z,0.00
2018-11-04T04:25:04.460Z,0.00
2018-11-04T04:26:04.279Z,0.00
2018-11-04T04:27:04.790Z,0.00
2018-11-04T04:28:05.196Z,0.00
2018-11-04T04:29:05.430Z,0.00
2018-11-04T04:30:05.929Z,0.00
2018-11-04T04:31:06.117Z,0.00
2018-11-04T04:32:06.160Z,0.00
2018-11-04T04:33:06.048Z,0.00
2018-11-04T04:34:06.565Z,0.00
2018-11-04T04:35:06.572Z,0.00
2018-11-04T04:36:06.981Z,0.00
2018-11-04T04:37:06.988Z,0.00
2018-11-04T04:38:06.883Z,0.00
2018-11-04T04:39:07.209Z,0.00
2018-11-04T04:40:07.411Z,0.00
2018-11-04T04:41:07.353Z,0.00
2018-11-04T04:42:07.637Z,0.00
2018-11-04T04:43:07.430Z,0.00
2018-11-04T04:44:07.834Z,0.00
2018-11-04T04:45:08.648Z,0.00
2018-11-04T04:46:08.817Z,0.00
2018-11-04T04:47:08.625Z,0.00
2018-11-04T04:48:09.259Z,0.00
2018-11-04T04:49:09.158Z,0.00
2018-11-04T04:50:09.608Z,0.00
2018-11-04T04:51:09.980Z,0.00
2018-11-04T04:52:10.486Z,0.00
2018-11-04T04:53:10.781Z,0.00
2018-11-04T04:54:11.126Z,0.00
2018-11-04T04:55:11.783Z,0.00
2018-11-04T04:56:11.653Z,0.00
2018-11-04T04:57:12.245Z,0.00
2018-11-04T04:58:12.030Z,0.00
2018-11-04T04:59:12.430Z,0.00
2018-11-04T05:00:12.946Z,0.00
2018-11-04T05:01:13.236Z,0.00
2018-11-04T05:02:13.548Z,0.00
2018-11-04T05:03:13.839Z,0.00
2018-11-04T05:04:14.163Z,0.00
2018-11-04T05:05:15.041Z,0.00
2018-11-04T05:06:15.092Z,0.00
2018-11-04T05:07:14.906Z,0.00
2018-11-04T05:08:15.216Z,0.00
2018-11-04T05:09:15.528Z,0.00
2018-11-04T05:10:16.320Z,0.00
2018-11-04T05:11:16.154Z,0.00
2018-11-04T05:12:16.481Z,0.00
2018-11-04T05:13:16.989Z,0.00
2018-11-04T05:14:17.404Z,0.00
2018-11-04T05:15:18.096Z,0.00
2018-11-04T05:16:18.104Z,0.00
2018-11-04T05:17:19.047Z,0.00
2018-11-04T05:18:19.757Z,0.00
2018-11-04T05:19:19.967Z,0.00
2018-11-04T05:20:20.395Z,0.00
2018-11-04T05:21:20.804Z,0.00
2018-11-04T05:22:21.012Z,0.00
2018-11-04T05:23:21.014Z,0.00
2018-11-04T05:24:21.188Z,0.00
2018-11-04T05:25:21.259Z,0.00
2018-11-04T05:26:21.422Z,0.00
2018-11-04T05:27:21.984Z,0.00
2018-11-04T05:28:21.664Z,0.00
2018-11-04T05:29:21.772Z,0.00
2018-11-04T05:30:21.963Z,0.00
2018-11-04T05:31:22.071Z,0.00
2018-11-04T05:32:22.006Z,0.00
2018-11-04T05:33:22.347Z,0.00
2018-11-04T05:34:22.446Z,0.00
2018-11-04T05:35:22.553Z,0.00
2018-11-04T05:36:22.637Z,0.00
2018-11-04T05:37:22.862Z,0.00
2018-11-04T05:38:23.109Z,0.00
2018-11-04T05:39:23.169Z,0.00
2018-11-04T05:40:23.383Z,0.00
2018-11-04T05:41:23.575Z,0.00
2018-11-04T05:42:23.770Z,0.00
2018-11-04T05:43:24.067Z,0.00
2018-11-04T05:44:24.234Z,0.00
2018-11-04T05:45:24.110Z,0.00
2018-11-04T05:46:24.508Z,1.00
2018-11-04T05:47:26.208Z,0.00
2018-11-04T05:48:24.962Z,0.00
2018-11-04T05:49:25.335Z,0.00
2018-11-04T05:50:25.893Z,1.00
2018-11-04T05:51:25.793Z,1.00
2018-11-04T05:52:26.163Z,1.00
2018-11-04T05:53:26.567Z,1.00
2018-11-04T05:54:26.947Z,1.00
2018-11-04T05:55:27.300Z,2.00
2018-11-04T05:56:27.652Z,3.00
2018-11-04T05:57:28.084Z,2.00
2018-11-04T05:58:28.440Z,4.00
2018-11-04T05:59:28.754Z,4.00
2018-11-04T06:00:29.101Z,5.00
2018-11-04T06:01:29.391Z,6.00
2018-11-04T06:02:29.829Z,7.00
2018-11-04T06:03:30.221Z,8.00
2018-11-04T06:04:30.223Z,11.00
2018-11-04T06:05:30.536Z,12.00
2018-11-04T06:06:30.851Z,13.00
2018-11-04T06:07:31.161Z,15.00
2018-11-04T06:08:31.584Z,16.00
2018-11-04T06:09:31.880Z,19.00
2018-11-04T06:10:32.312Z,21.00
2018-11-04T06:11:32.631Z,24.00
2018-11-04T06:12:32.967Z,26.00
2018-11-04T06:13:33.928Z,30.00
2018-11-04T06:14:34.781Z,34.00
2018-11-04T06:15:35.187Z,38.00
2018-11-04T06:16:35.595Z,42.00
2018-11-04T06:17:36.027Z,46.00
2018-11-04T06:18:36.252Z,48.00
2018-11-04T06:19:36.949Z,53.00
2018-11-04T06:20:36.543Z,58.00
2018-11-04T06:21:36.754Z,63.00
2018-11-04T06:22:36.873Z,71.00
2018-11-04T06:23:36.858Z,79.00
2018-11-04T06:24:37.230Z,88.00
2018-11-04T06:25:37.530Z,93.00
2018-11-04T06:26:37.614Z,99.00
2018-11-04T06:27:37.918Z,106.00
2018-11-04T06:28:37.992Z,113.00
2018-11-04T06:29:38.066Z,120.00
2018-11-04T06:30:38.353Z,126.00
2018-11-04T06:31:38.539Z,132.00
2018-11-04T06:32:38.745Z,141.00
2018-11-04T06:33:39.139Z,152.00
2018-11-04T06:34:39.317Z,164.00
2018-11-04T06:35:39.234Z,174.00
2018-11-04T06:36:39.753Z,184.00
2018-11-04T06:37:40.154Z,196.00
2018-11-04T06:38:40.481Z,207.00
2018-11-04T06:39:41.992Z,214.00
2018-11-04T06:40:41.297Z,220.00
2018-11-04T06:41:41.610Z,225.00
2018-11-04T06:42:42.009Z,227.00
2018-11-04T06:43:42.423Z,229.00
2018-11-04T06:44:42.861Z,232.00
2018-11-04T06:45:43.181Z,240.00
2018-11-04T06:46:43.485Z,252.00
2018-11-04T06:47:43.959Z,269.00
2018-11-04T06:48:44.235Z,291.00
2018-11-04T06:49:44.640Z,313.00
2018-11-04T06:50:45.050Z,324.00
2018-11-04T06:51:45.370Z,322.00
2018-11-04T06:52:45.690Z,320.00
2018-11-04T06:53:46.099Z,322.00
2018-11-04T06:54:46.525Z,324.00
2018-11-04T06:55:47.200Z,328.00
2018-11-04T06:56:46.979Z,342.00
2018-11-04T06:57:47.525Z,359.00
2018-11-04T06:58:47.353Z,378.00
2018-11-04T06:59:47.666Z,388.00
2018-11-04T07:00:48.379Z,395.00
2018-11-04T07:01:48.996Z,408.00
2018-11-04T07:02:48.916Z,426.00
2018-11-04T07:03:49.932Z,442.00
2018-11-04T07:04:50.045Z,466.00
2018-11-04T07:05:50.460Z,489.00
2018-11-04T07:06:50.470Z,506.00
2018-11-04T07:07:50.797Z,518.00
2018-11-04T07:08:51.217Z,526.00
2018-11-04T07:09:51.519Z,541.00
2018-11-04T07:10:51.823Z,571.00
2018-11-04T07:11:51.828Z,592.00
2018-11-04T07:12:51.950Z,607.00
2018-11-04T07:13:51.846Z,621.00
2018-11-04T07:14:52.229Z,639.00
2018-11-04T07:15:52.532Z,661.00
2018-11-04T07:16:52.619Z,691.00
2018-11-04T07:17:52.913Z,719.00
2018-11-04T07:18:53.311Z,730.00
2018-11-04T07:19:53.473Z,730.00
2018-11-04T07:20:53.601Z,749.00
2018-11-04T07:21:53.875Z,788.00
2018-11-04T07:22:53.908Z,825.00
2018-11-04T07:23:54.173Z,838.00
2018-11-04T07:24:54.287Z,841.00
2018-11-04T07:25:54.433Z,843.00
2018-11-04T07:26:54.446Z,864.00
2018-11-04T07:27:54.400Z,886.00
2018-11-04T07:28:54.689Z,895.00
2018-11-04T07:29:55.047Z,904.00
2018-11-04T07:30:55.397Z,913.00
2018-11-04T07:31:55.827Z,926.00
2018-11-04T07:32:56.107Z,956.00
2018-11-04T07:33:56.534Z,977.00
2018-11-04T07:34:56.934Z,977.00
2018-11-04T07:35:57.595Z,993.00
2018-11-04T07:36:57.373Z,1054.00
2018-11-04T07:37:57.779Z,1122.00
2018-11-04T07:38:58.074Z,1168.00
2018-11-04T07:39:58.389Z,1185.00
2018-11-04T07:40:58.751Z,1201.00
2018-11-04T07:41:59.119Z,1205.00
2018-11-04T07:42:59.915Z,1214.00
2018-11-04T07:43:59.750Z,1256.00
2018-11-04T07:45:00.165Z,1332.00
2018-11-04T07:46:00.619Z,1395.00
2018-11-04T07:47:00.993Z,1436.00
2018-11-04T07:48:01.807Z,1474.00
2018-11-04T07:49:01.423Z,1481.00
2018-11-04T07:50:01.552Z,1455.00
2018-11-04T07:51:01.804Z,1435.00
2018-11-04T07:52:01.658Z,1443.00
2018-11-04T07:53:02.268Z,1473.00
2018-11-04T07:54:02.771Z,1496.00
2018-11-04T07:55:02.873Z,1480.00
2018-11-04T07:56:02.890Z,1458.00
2018-11-04T07:57:04.110Z,1468.00
2018-11-04T07:58:04.429Z,1519.00
2018-11-04T07:59:04.214Z,1563.00
2018-11-04T08:00:04.530Z,1560.00
2018-11-04T08:01:05.655Z,1559.00
2018-11-04T08:02:05.844Z,1607.00
2018-11-04T08:03:06.032Z,1665.00
2018-11-04T08:04:06.401Z,1694.00
2018-11-04T08:05:06.510Z,1638.00
2018-11-04T08:06:06.826Z,1627.00
2018-11-04T08:07:06.874Z,1678.00
2018-11-04T08:08:07.040Z,1741.00
2018-11-04T08:09:07.140Z,1745.00
2018-11-04T08:10:07.406Z,1714.00
2018-11-04T08:11:07.432Z,1711.00
2018-11-04T08:12:07.738Z,1746.00
2018-11-04T08:13:07.935Z,1774.00
2018-11-04T08:14:08.022Z,1770.00
2018-11-04T08:15:08.319Z,1764.00
2018-11-04T08:16:08.411Z,1788.00
2018-11-04T08:17:08.424Z,1786.00
2018-11-04T08:18:08.646Z,1765.00
2018-11-04T08:19:08.786Z,1786.00
2018-11-04T08:20:08.801Z,1805.00
2018-11-04T08:21:09.002Z,1772.00
2018-11-04T08:22:09.754Z,1735.00
2018-11-04T08:23:09.519Z,1720.00
2018-11-04T08:24:10.029Z,1717.00
2018-11-04T08:25:09.949Z,1741.00
2018-11-04T08:26:10.329Z,1773.00
2018-11-04T08:27:10.689Z,1791.00
2018-11-04T08:28:11.105Z,1817.00
2018-11-04T08:29:11.505Z,1905.00
2018-11-04T08:30:12.031Z,2042.00
2018-11-04T08:31:12.338Z,2162.00
2018-11-04T08:32:12.756Z,2218.00
2018-11-04T08:33:13.074Z,2182.00
2018-11-04T08:34:13.385Z,2106.00
2018-11-04T08:35:13.767Z,2078.00
2018-11-04T08:36:14.241Z,2098.00
2018-11-04T08:37:14.672Z,2111.00
2018-11-04T08:38:15.075Z,2102.00
2018-11-04T08:39:15.462Z,2075.00
2018-11-04T08:40:16.433Z,2059.00
2018-11-04T08:41:16.210Z,2084.00
2018-11-04T08:42:16.511Z,2114.00
2018-11-04T08:43:16.845Z,2048.00
2018-11-04T08:44:17.247Z,1988.00
2018-11-04T08:45:17.705Z,2022.00
2018-11-04T08:46:18.557Z,2093.00
2018-11-04T08:47:19.076Z,2178.00
2018-11-04T08:48:19.487Z,2331.00
2018-11-04T08:49:19.917Z,2509.00
2018-11-04T08:50:19.913Z,2578.00
2018-11-04T08:51:21.045Z,2519.00
2018-11-04T08:52:21.056Z,2445.00
2018-11-04T08:53:21.568Z,2382.00
2018-11-04T08:54:21.219Z,2330.00
2018-11-04T08:55:21.278Z,2313.00
2018-11-04T08:56:21.395Z,2342.00
2018-11-04T08:57:22.364Z,2406.00
2018-11-04T08:58:21.912Z,2470.00
2018-11-04T08:59:21.903Z,2540.00
2018-11-04T09:00:22.423Z,2521.00
2018-11-04T09:01:22.190Z,2432.00
2018-11-04T09:02:22.437Z,2406.00
2018-11-04T09:03:22.624Z,2464.00
2018-11-04T09:04:22.840Z,2494.00
2018-11-04T09:05:23.997Z,2558.00
2018-11-04T09:06:23.191Z,2660.00
2018-11-04T09:07:23.399Z,2707.00
2018-11-04T09:09:23.684Z,2914.00
2018-11-04T09:10:23.875Z,2910.00
2018-11-04T09:12:23.992Z,2750.00
2018-11-04T09:13:24.063Z,2757.00
2018-11-04T09:14:24.185Z,2778.00
2018-11-04T09:15:24.179Z,2773.00
2018-11-04T09:16:24.135Z,2735.00
2018-11-04T09:17:24.803Z,2698.00
2018-11-04T09:18:24.621Z,2768.00
2018-11-04T09:19:24.943Z,2847.00
2018-11-04T09:20:25.461Z,2919.00
2018-11-04T09:21:25.769Z,2980.00
2018-11-04T09:22:26.358Z,3166.00
2018-11-04T09:23:27.012Z,3337.00
2018-11-04T09:24:26.822Z,3388.00
2018-11-04T09:25:27.232Z,3268.00
2018-11-04T09:26:27.777Z,3080.00
2018-11-04T09:27:27.650Z,3006.00
2018-11-04T09:28:28.161Z,3020.00
2018-11-04T09:29:28.092Z,3110.00
2018-11-04T09:30:28.089Z,3156.00
2018-11-04T09:31:28.557Z,3228.00
2018-11-04T09:32:28.943Z,3289.00
2018-11-04T09:33:29.333Z,3410.00
2018-11-04T09:34:29.946Z,3559.00
2018-11-04T09:35:29.939Z,3704.00
2018-11-04T09:36:31.236Z,3760.00
2018-11-04T09:37:30.617Z,3641.00
2018-11-04T09:38:31.023Z,3631.00
2018-11-04T09:39:31.464Z,3820.00
2018-11-04T09:40:31.742Z,4027.00
2018-11-04T09:41:32.049Z,0.00
2018-11-04T09:42:32.373Z,4209.00
2018-11-04T09:43:32.942Z,4097.00
2018-11-04T09:44:32.889Z,4035.00
2018-11-04T09:45:34.196Z,3979.00
2018-11-04T09:46:34.615Z,3948.00
2018-11-04T09:47:34.720Z,3935.00
2018-11-04T09:48:35.138Z,3875.00
2018-11-04T09:49:35.462Z,3814.00
2018-11-04T09:50:35.868Z,3727.00
2018-11-04T09:51:36.183Z,3753.00
2018-11-04T09:52:36.227Z,3770.00
2018-11-04T09:53:36.706Z,3961.00
2018-11-04T09:54:36.831Z,4175.00
2018-11-04T09:55:36.807Z,4151.00
2018-11-04T09:56:37.003Z,3955.00
2018-11-04T09:57:36.927Z,3798.00
2018-11-04T09:58:37.305Z,3793.00
2018-11-04T09:59:37.497Z,3785.00
2018-11-04T10:00:37.675Z,3776.00
2018-11-04T10:01:37.776Z,3858.00
2018-11-04T10:02:37.980Z,4049.00
2018-11-04T10:03:38.362Z,4059.00
2018-11-04T10:04:38.886Z,4135.00
2018-11-04T10:05:38.940Z,4128.00
2018-11-04T10:06:38.995Z,4045.00
2018-11-04T10:07:39.033Z,3891.00
2018-11-04T10:08:39.173Z,3735.00
2018-11-04T10:09:39.586Z,3806.00
2018-11-04T10:10:39.919Z,3969.00
2018-11-04T10:11:40.234Z,4129.00
2018-11-04T10:12:40.546Z,4363.00
2018-11-04T10:13:40.966Z,4567.00
2018-11-04T10:14:41.481Z,4666.00
2018-11-04T10:15:41.802Z,4739.00
2018-11-04T10:16:42.374Z,4655.00
2018-11-04T10:17:42.664Z,4388.00
2018-11-04T10:18:43.145Z,4164.00
2018-11-04T10:20:43.982Z,4254.00
2018-11-04T10:21:43.873Z,4246.00
2018-11-04T10:22:44.191Z,4397.00
2018-11-04T10:23:44.488Z,4564.00
2018-11-04T10:24:45.192Z,4625.00
2018-11-04T10:25:45.030Z,4637.00
2018-11-04T10:26:45.390Z,4643.00
2018-11-04T10:27:45.996Z,4539.00
2018-11-04T10:28:45.911Z,4674.00
2018-11-04T10:29:46.341Z,4908.00
2018-11-04T10:30:46.743Z,4924.00
2018-11-04T10:31:47.163Z,4876.00
2018-11-04T10:32:47.225Z,4754.00
2018-11-04T10:33:47.592Z,4596.00
2018-11-04T10:34:47.947Z,4608.00
2018-11-04T10:35:49.178Z,4700.00
2018-11-04T10:36:49.178Z,4780.00
2018-11-04T10:37:49.802Z,4716.00
2018-11-04T10:38:50.208Z,4731.00
2018-11-04T10:39:50.529Z,4757.00
2018-11-04T10:40:50.744Z,4896.00
2018-11-04T10:41:50.983Z,5152.00
2018-11-04T10:42:51.269Z,5301.00
2018-11-04T10:43:51.250Z,5287.00
2018-11-04T10:44:51.875Z,5123.00
2018-11-04T10:45:51.710Z,4935.00
2018-11-04T10:46:52.173Z,4736.00
2018-11-04T10:47:52.463Z,4657.00
2018-11-04T10:48:52.668Z,4520.00
2018-11-04T10:49:52.874Z,4593.00
2018-11-04T10:50:53.037Z,4584.00
2018-11-04T10:51:53.262Z,4657.00
2018-11-04T10:52:53.430Z,4782.00
2018-11-04T10:53:53.864Z,4848.00
2018-11-04T10:54:54.064Z,4735.00
2018-11-04T10:55:54.051Z,4935.00
2018-11-04T10:56:54.349Z,5060.00
2018-11-04T10:57:54.702Z,4872.00
2018-11-04T10:58:55.283Z,4743.00
2018-11-04T10:59:55.111Z,4757.00
2018-11-04T11:00:55.523Z,4887.00
2018-11-04T11:01:55.812Z,4867.00
2018-11-04T11:02:56.137Z,4787.00
2018-11-04T11:03:56.460Z,4804.00
2018-11-04T11:04:56.787Z,5057.00
2018-11-04T11:05:57.193Z,5375.00
2018-11-04T11:06:57.589Z,5967.00
2018-11-04T11:07:57.900Z,6373.00
2018-11-04T11:08:58.253Z,6551.00
2018-11-04T11:09:58.558Z,6666.00
2018-11-04T11:10:59.113Z,6627.00
2018-11-04T11:11:58.950Z,6449.00
2018-11-04T11:12:59.259Z,6361.00
2018-11-04T11:13:59.674Z,6435.00
2018-11-04T11:15:00.190Z,6584.00
2018-11-04T11:16:00.010Z,6815.00
2018-11-04T11:17:00.297Z,7052.00
2018-11-04T11:18:00.636Z,7010.00
2018-11-04T11:19:00.946Z,6595.00
2018-11-04T11:20:01.261Z,6275.00
2018-11-04T11:21:01.674Z,6289.00
2018-11-04T11:22:02.385Z,6531.00
2018-11-04T11:23:02.628Z,6867.00
2018-11-04T11:24:02.851Z,6913.00
2018-11-04T11:25:02.812Z,6704.00
2018-11-04T11:26:03.156Z,6584.00
2018-11-04T11:27:04.043Z,6360.00
2018-11-04T11:28:04.034Z,6553.00
2018-11-04T11:29:04.466Z,6494.00
2018-11-04T11:30:04.675Z,6354.00
2018-11-04T11:31:04.688Z,7157.00
2018-11-04T11:32:04.690Z,7634.00
2018-11-04T11:33:05.419Z,7779.00
2018-11-04T11:34:05.317Z,7425.00
2018-11-04T11:35:05.940Z,7060.00
2018-11-04T11:36:06.048Z,6958.00
2018-11-04T11:37:06.271Z,6865.00
2018-11-04T11:38:06.379Z,6991.00
2018-11-04T11:39:06.790Z,7224.00
2018-11-04T11:40:06.999Z,7353.00
2018-11-04T11:41:07.270Z,7284.00
2018-11-04T11:42:07.536Z,7059.00
2018-11-04T11:43:07.224Z,7029.00
2018-11-04T11:44:07.396Z,7324.00
2018-11-04T11:45:07.750Z,7504.00
2018-11-04T11:46:08.103Z,7644.00
2018-11-04T11:47:08.128Z,7753.00
2018-11-04T11:48:08.366Z,7806.00
2018-11-04T11:49:08.476Z,7618.00
2018-11-04T11:50:08.684Z,7252.00
2018-11-04T11:51:08.675Z,6959.00
2018-11-04T11:52:08.878Z,6849.00
2018-11-04T11:53:09.005Z,6790.00
2018-11-04T11:54:09.112Z,6790.00
2018-11-04T11:55:09.467Z,6955.00
2018-11-04T11:56:09.772Z,7047.00
2018-11-04T11:57:10.156Z,7005.00
2018-11-04T11:58:10.521Z,6822.00
2018-11-04T11:59:11.001Z,6692.00
2018-11-04T12:00:11.417Z,6791.00
2018-11-04T12:01:11.922Z,6978.00
2018-11-04T12:02:14.754Z,7068.00
2018-11-04T12:03:12.080Z,7032.00
2018-11-04T12:04:12.396Z,7006.00
2018-11-04T12:05:12.914Z,6950.00
2018-11-04T12:06:12.913Z,6775.00
2018-11-04T12:07:13.246Z,6637.00
2018-11-04T12:08:13.632Z,6553.00
2018-11-04T12:09:14.003Z,6523.00
2018-11-04T12:10:14.980Z,6428.00
2018-11-04T12:11:14.521Z,6347.00
2018-11-04T12:12:14.664Z,6267.00
2018-11-04T12:13:14.608Z,6254.00
2018-11-04T12:14:14.917Z,6240.00
2018-11-04T12:16:15.354Z,5876.00
2018-11-04T12:17:15.677Z,5784.00
2018-11-04T12:18:16.113Z,5832.00
2018-11-04T12:19:16.089Z,5868.00
2018-11-04T12:20:16.831Z,5940.00
2018-11-04T12:21:16.854Z,5971.00
2018-11-04T12:22:16.710Z,5919.00
2018-11-04T12:23:17.104Z,5866.00
2018-11-04T12:24:18.233Z,5823.00
2018-11-04T12:25:17.574Z,5887.00
2018-11-04T12:26:18.455Z,5983.00
2018-11-04T12:27:29.572Z,5897.00
2018-11-04T12:28:18.970Z,5737.00
2018-11-04T12:29:19.086Z,5610.00
2018-11-04T12:30:19.105Z,5497.00
2018-11-04T12:31:19.825Z,5442.00
2018-11-04T12:32:19.826Z,5454.00
2018-11-04T12:33:19.971Z,5476.00
2018-11-04T12:34:20.463Z,5595.00
2018-11-04T12:35:20.958Z,5735.00
2018-11-04T12:36:21.285Z,5603.00
2018-11-04T12:37:21.394Z,5298.00
2018-11-04T12:38:21.251Z,4988.00
2018-11-04T12:39:21.906Z,4646.00
2018-11-04T12:40:22.033Z,4432.00
2018-11-04T12:41:22.114Z,4265.00
2018-11-04T12:42:22.019Z,4298.00
2018-11-04T12:43:22.286Z,4488.00
2018-11-04T12:44:22.522Z,4493.00
2018-11-04T12:45:22.750Z,4546.00
2018-11-04T12:46:22.867Z,4871.00
2018-11-04T12:47:22.953Z,5135.00
2018-11-04T12:48:23.021Z,4978.00
2018-11-04T12:49:23.211Z,4619.00
2018-11-04T12:50:23.433Z,4352.00
2018-11-04T12:51:23.600Z,4223.00
2018-11-04T12:52:23.857Z,4209.00
2018-11-04T12:53:24.214Z,4105.00